Data for 10/26/2013

Time Sea-Level Adjusted Pressure Absolute Pressure Temperature Relative Humidity Dew Point   
(mb) (inHg) (mb) (inHg) (C) (F) (%) (C) (F)
00:05 1026 30.3 855 25.25 4.8 40.6 47 -5.7 21.7
00:10 1026 30.3 855 25.25 5.2 41.3 44 -6 21.1
00:15 1026 30.3 856 25.28 5.9 42.6 41 -6.4 20.5
00:20 1026 30.3 856 25.28 6 42.9 42 -5.9 21.3
00:25 1026 30.3 856 25.28 6 42.7 41 -6.3 20.7
00:30 1026 30.3 856 25.28 5.4 41.8 45 -5.4 22.2
00:35 1026 30.3 856 25.28 5.4 41.7 43 -6.2 20.9
00:40 1026 30.3 856 25.28 5.3 41.5 46 -5.3 22.4
00:45 1026 30.3 856 25.28 4.8 40.7 46 -5.7 21.8
00:50 1026 30.3 856 25.28 5.1 41.1 45 -5.9 21.3
00:55 1026 30.3 856 25.28 5.5 41.8 43 -6.2 20.9
01:00 1026 30.3 856 25.28 5.6 42.1 42 -6.3 20.7
01:05 1026 30.3 856 25.28 5.6 42 44 -5.7 21.7
01:10 1026 30.3 856 25.28 4.8 40.7 45 -6 21.2
01:15 1026 30.3 855 25.25 4.7 40.5 47 -5.7 21.7
01:20 1026 30.3 855 25.25 4.6 40.3 46 -6.1 21
01:25 1026 30.3 855 25.25 4.6 40.3 47 -5.6 21.9
01:30 1026 30.3 856 25.28 4.4 39.9 48 -5.7 21.7
01:35 1026 30.3 856 25.28 4.3 39.7 49 -5.6 22
01:40 1026 30.3 856 25.28 4.5 40.1 46 -6.1 21
01:45 1026 30.3 856 25.28 4.4 40 48 -5.7 21.8
01:50 1026 30.3 855 25.25 4.1 39.3 50 -5.5 22.2
01:55 1026 30.3 855 25.25 3.5 38.3 52 -5.5 22
02:00 1026 30.3 855 25.25 3.4 38.2 52 -5.5 22
02:05 1026 30.3 855 25.25 3.3 38 53 -5.3 22.5
02:10 1026 30.3 855 25.25 3.8 38.9 50 -5.6 21.9
02:15 1026 30.3 855 25.25 4 39.3 49 -5.6 21.8
02:20 1026 30.3 855 25.25 4.3 39.7 47 -5.9 21.3
02:25 1026 30.3 855 25.25 4.5 40.1 48 -5.7 21.8
02:30 1026 30.3 855 25.25 4.4 39.9 47 -5.9 21.3
02:35 1026 30.3 855 25.25 4.4 40 47 -5.8 21.6
02:40 1026 30.3 855 25.25 4.5 40 47 -5.8 21.6
02:45 1026 30.3 855 25.25 4.4 39.9 48 -5.8 21.6
02:50 1026 30.3 855 25.25 4.2 39.6 49 -5.5 22.1
02:55 1026 30.3 855 25.25 3.9 39 51 -5.3 22.5
03:00 1026 30.3 855 25.25 3.4 38.1 53 -5.3 22.5
03:05 1026 30.3 855 25.25 3.2 37.7 53 -5.5 22.1
03:10 1026 30.3 855 25.25 3.3 38 51 -5.7 21.7
03:15 1026 30.3 855 25.25 3.7 38.7 49 -5.9 21.4
03:20 1026 30.3 855 25.25 4.1 39.4 48 -5.9 21.4
03:25 1026 30.3 855 25.25 4.3 39.7 48 -5.8 21.6
03:30 1026 30.3 855 25.25 4.2 39.6 50 -5.3 22.5
03:35 1026 30.3 855 25.25 3.8 38.8 51 -5.5 22.1
03:40 1026 30.3 855 25.25 3.6 38.4 53 -5.2 22.7
03:45 1026 30.3 855 25.25 3 37.5 55 -5 22.9
03:50 1026 30.3 855 25.25 2.7 36.8 56 -5.2 22.7
03:55 1026 30.3 855 25.25 2.9 37.2 55 -5.4 22.4
04:00 1026 30.3 855 25.25 3 37.4 55 -5.2 22.6
04:05 1026 30.3 855 25.25 3.1 37.6 54 -5.4 22.3
04:10 1026 30.3 855 25.25 3.4 38.1 52 -5.6 21.9
04:15 1026 30.3 855 25.25 3.8 38.9 51 -5.4 22.2
04:20 1026 30.3 855 25.25 4 39.2 50 -5.4 22.3
04:25 1026 30.3 855 25.25 4.1 39.3 50 -5.4 22.4
04:30 1026 30.3 855 25.25 4.2 39.6 48 -5.7 21.7
04:35 1026 30.3 855 25.25 4.5 40.2 48 -5.4 22.2
04:40 1026 30.3 855 25.25 4.4 39.9 50 -5.1 22.8
04:45 1026 30.3 856 25.28 4 39.1 54 -4.6 23.7
04:50 1026 30.3 856 25.28 3.7 38.6 53 -5.2 22.7
04:55 1026 30.3 856 25.28 3.7 38.7 52 -5.1 22.8
05:00 1026 30.3 856 25.28 3.5 38.3 53 -5.2 22.7
05:05 1026 30.3 856 25.28 3.8 38.8 53 -5 23.1
05:10 1026 30.3 855 25.25 4.1 39.3 53 -4.6 23.8
05:15 1026 30.3 855 25.25 3.8 38.8 55 -4.4 24.1
05:20 1026 30.3 855 25.25 3.9 39 53 -4.9 23.1
05:25 1026 30.3 855 25.25 3.9 39 54 -4.7 23.6
05:30 1026 30.3 855 25.25 4 39.1 54 -4.6 23.7
05:35 1026 30.3 855 25.25 4 39.1 54 -4.4 24
05:40 1026 30.3 855 25.25 3.7 38.7 56 -4.4 24.1
05:45 1026 30.3 856 25.28 3.5 38.3 54 -5 23.1
05:50 1026 30.3 856 25.28 3.3 38 55 -4.8 23.4
05:55 1026 30.3 855 25.25 3 37.4 56 -4.8 23.3
06:00 1026 30.3 855 25.25 2.6 36.7 58 -4.8 23.4
06:05 1026 30.3 855 25.25 2.2 35.9 60 -4.8 23.3
06:10 1026 30.3 855 25.25 1.8 35.3 61 -4.9 23.1
06:15 1026 30.3 855 25.25 1.8 35.2 62 -4.8 23.4
06:20 1026 30.3 855 25.25 1.6 34.8 62 -4.9 23.1
06:25 1026 30.3 855 25.25 1.9 35.4 60 -5 23
06:30 1026 30.3 855 25.25 1.7 35 62 -4.9 23.2
06:35 1026 30.3 855 25.25 1.4 34.5 62 -5 23
06:40 1026 30.3 855 25.25 1.5 34.6 63 -4.9 23.2
06:45 1026 30.3 855 25.25 1.5 34.8 62 -5 23
06:50 1026 30.3 855 25.25 2 35.6 59 -5.2 22.7
06:55 1026 30.3 855 25.25 2.4 36.4 59 -4.8 23.4
07:00 1026 30.3 855 25.25 2.4 36.2 59 -4.9 23.2
07:05 1026 30.3 855 25.25 2.6 36.7 59 -4.7 23.5
07:10 1026 30.3 855 25.25 2.4 36.4 59 -4.8 23.4
07:15 1026 30.3 855 25.25 2.7 36.8 58 -4.9 23.2
07:20 1026 30.3 855 25.25 2.9 37.3 56 -5 22.9
07:25 1026 30.3 855 25.25 3.2 37.7 56 -4.8 23.3
07:30 1026 30.3 855 25.25 3.2 37.7 56 -4.7 23.6
07:35 1026 30.3 855 25.25 3 37.5 57 -4.7 23.5
07:40 1026 30.3 855 25.25 2.6 36.8 59 -4.6 23.6
07:45 1026 30.3 855 25.25 2.4 36.4 58 -4.9 23.1
07:50 1026 30.3 855 25.25 2.6 36.6 58 -4.9 23.2
07:55 1026 30.3 855 25.25 2.7 36.8 58 -4.9 23.3
08:00 1026 30.3 855 25.25 2.9 37.2 57 -4.9 23.2
08:05 1026 30.3 855 25.25 3.3 37.9 55 -4.9 23.2
08:10 1026 30.3 855 25.25 3.6 38.5 55 -4.7 23.5
08:15 1026 30.3 855 25.25 4 39.2 53 -4.6 23.7
08:20 1026 30.3 856 25.28 4.4 39.9 52 -4.6 23.7
08:25 1026 30.3 856 25.28 5 41.1 50 -4.5 23.9
08:30 1026 30.3 856 25.28 5.5 42 49 -4.2 24.4
08:35 1026 30.3 856 25.28 5.7 42.3 48 -4.4 24
08:40 1026 30.3 856 25.28 6.5 43.7 46 -4.3 24.2
08:45 1026 30.3 856 25.28 7.1 44.7 44 -4.2 24.4
08:50 1026 30.3 856 25.28 7.6 45.7 43 -4.2 24.5
08:55 1026 30.3 856 25.28 8 46.4 41 -4.4 24.1
09:00 1026 30.3 856 25.28 8.4 47 41 -4.2 24.4
09:05 1027 30.33 856 25.28 8.8 47.9 38 -4.6 23.8
09:10 1027 30.33 856 25.28 8.6 47.4 41 -4.1 24.7
09:15 1027 30.33 856 25.28 8.7 47.7 39 -4.5 23.8
09:20 1027 30.33 856 25.28 9.1 48.3 37 -4.9 23.1
09:25 1027 30.33 856 25.28 9.2 48.6 38 -4.4 24.2
09:30 1026 30.3 856 25.28 9.4 48.9 37 -4.4 24
09:35 1026 30.3 856 25.28 9.4 49 38 -4.1 24.7
09:40 1026 30.3 856 25.28 9.1 48.5 39 -4.2 24.5
09:45 1026 30.3 856 25.28 9.5 49.1 37 -4.6 23.7
09:50 1026 30.3 856 25.28 10 49.9 37 -4 24.8
09:55 1026 30.3 856 25.28 10 49.9 36 -4.5 23.9
10:00 1026 30.3 856 25.28 10.4 50.7 34 -4.8 23.4
10:05 1026 30.3 856 25.28 10.8 51.5 33 -4.7 23.5
10:10 1026 30.3 856 25.28 11.3 52.4 32 -4.7 23.5
10:15 1026 30.3 856 25.28 11.3 52.4 34 -4 24.7
10:20 1026 30.3 856 25.28 11.6 52.8 33 -4.2 24.4
10:25 1026 30.3 856 25.28 10.8 51.4 36 -3.7 25.3
10:30 1026 30.3 856 25.28 10.1 50.1 37 -4 24.7
10:35 1026 30.3 856 25.28 10.6 51.1 35 -4.1 24.5
10:40 1026 30.3 856 25.28 11.2 52.1 34 -4.2 24.4
10:45 1026 30.3 856 25.28 11.3 52.3 35 -3.8 25.2
10:50 1026 30.3 856 25.28 11.5 52.6 34 -3.9 25
10:55 1026 30.3 856 25.28 11.5 52.8 34 -3.8 25.1
11:00 1026 30.3 856 25.28 12 53.6 33 -3.6 25.5
11:05 1026 30.3 856 25.28 11.8 53.3 34 -3.6 25.6
11:10 1026 30.3 856 25.28 11.9 53.4 33 -3.6 25.5
11:15 1026 30.3 855 25.25 12.6 54.7 33 -3.4 25.9
11:20 1026 30.3 855 25.25 13 55.3 33 -2.8 26.9
11:25 1026 30.3 855 25.25 13.1 55.6 32 -3.3 26
11:30 1026 30.3 855 25.25 13.3 55.9 32 -2.8 27
11:35 1026 30.3 855 25.25 13.3 55.9 31 -3.5 25.7
11:40 1026 30.3 855 25.25 13.8 56.8 31 -3.1 26.5
11:45 1026 30.3 855 25.25 13.6 56.5 31 -3.3 26.1
11:50 1026 30.3 855 25.25 14.4 57.8 28 -3.7 25.3
11:55 1026 30.3 855 25.25 14.5 58.1 29 -3.2 26.3
12:00 1026 30.3 855 25.25 14.6 58.3 28 -3.6 25.6
12:05 1026 30.3 855 25.25 14.9 58.9 27 -3.9 25
12:10 1025 30.27 855 25.25 14.8 58.7 28 -3.2 26.2
12:15 1025 30.27 855 25.25 15.1 59.2 28 -3.2 26.2
12:20 1025 30.27 854 25.22 15.6 60.1 26 -3.5 25.7
12:25 1025 30.27 854 25.22 15.6 60.1 26 -3.6 25.5
12:30 1025 30.27 854 25.22 15.8 60.5 26 -3.5 25.8
12:35 1025 30.27 854 25.22 16 60.7 26 -3.3 26
12:40 1025 30.27 854 25.22 16.1 61 26 -3.3 26
12:45 1025 30.27 854 25.22 16.4 61.5 26 -3 26.6
12:50 1025 30.27 854 25.22 15.6 60 27 -3.4 25.9
12:55 1025 30.27 854 25.22 14.4 57.9 28 -3.6 25.5
13:00 1025 30.27 854 25.22 14.7 58.5 28 -3.7 25.3
13:05 1025 30.27 854 25.22 15.9 60.6 25 -3.8 25.2
13:10 1024 30.24 854 25.22 16.3 61.3 25 -3.9 24.9
13:15 1024 30.24 854 25.22 15.8 60.4 26 -3.6 25.4
13:20 1024 30.24 854 25.22 15.3 59.6 26 -4.1 24.5
13:25 1024 30.24 853 25.19 15.2 59.4 26 -4 24.8
13:30 1024 30.24 853 25.19 16.2 61.1 25 -4 24.9
13:35 1024 30.24 853 25.19 17 62.5 23 -4.1 24.6
13:40 1024 30.24 853 25.19 17.5 63.5 23 -4 24.8
13:45 1024 30.24 853 25.19 17.6 63.7 23 -3.7 25.3
13:50 1024 30.24 853 25.19 17.7 63.8 23 -3.6 25.5
13:55 1024 30.24 853 25.19 17.8 64 22 -4 24.8
14:00 1024 30.24 853 25.19 18 64.4 21 -4.4 24
14:05 1024 30.24 853 25.19 18.1 64.6 22 -3.9 25
14:10 1024 30.24 853 25.19 18.1 64.7 21 -4.7 23.5
14:15 1024 30.24 853 25.19 18.3 65 20 -4.6 23.8
14:20 1024 30.24 853 25.19 18.4 65.1 20 -4.6 23.7
14:25 1023 30.21 853 25.19 18.3 64.9 21 -4.5 24
14:30 1023 30.21 853 25.19 18.5 65.3 20 -4.5 23.9
14:35 1023 30.21 853 25.19 18.6 65.4 21 -4.3 24.2
14:40 1023 30.21 852 25.16 18.4 65.2 21 -4.4 24.1
14:45 1023 30.21 852 25.16 18.5 65.2 19 -5.6 21.9
14:50 1023 30.21 852 25.16 18.5 65.3 20 -4.8 23.3
14:55 1023 30.21 852 25.16 18.6 65.4 20 -4.7 23.5
15:00 1023 30.21 852 25.16 18.3 64.9 20 -4.9 23.1
15:05 1023 30.21 852 25.16 18.7 65.6 18 -5.6 21.8
15:10 1023 30.21 852 25.16 18.7 65.7 20 -4.7 23.5
15:15 1023 30.21 852 25.16 18.5 65.2 19 -5.3 22.4
15:20 1023 30.21 852 25.16 18.7 65.6 19 -5.1 22.9
15:25 1023 30.21 852 25.16 18.4 65.2 20 -4.7 23.5
15:30 1023 30.21 852 25.16 18.5 65.3 20 -4.7 23.6
15:35 1023 30.21 852 25.16 18.6 65.4 20 -4.7 23.6
15:40 1023 30.21 852 25.16 18.6 65.4 21 -4.2 24.4
15:45 1023 30.21 852 25.16 18.2 64.8 20 -5 23
15:50 1023 30.21 852 25.16 18.5 65.3 20 -4.7 23.5
15:55 1023 30.21 852 25.16 18.6 65.4 20 -4.8 23.4
16:00 1023 30.21 852 25.16 18.4 65.1 20 -4.7 23.6
16:05 1023 30.21 852 25.16 18.2 64.7 20 -4.8 23.3
16:10 1023 30.21 852 25.16 18.2 64.8 20 -5 23.1
16:15 1022 30.18 852 25.16 18.2 64.7 21 -4.6 23.7
16:20 1022 30.18 852 25.16 18.2 64.7 21 -4.6 23.8
16:25 1022 30.18 852 25.16 18.1 64.6 21 -4.5 23.9
16:30 1022 30.18 851 25.13 17.6 63.6 23 -3.6 25.5
16:35 1022 30.18 851 25.13 17.2 62.9 24 -3.2 26.3
16:40 1022 30.18 851 25.13 16.6 61.9 25 -3.4 25.8
16:45 1022 30.18 851 25.13 16.5 61.7 25 -3.5 25.8
16:50 1022 30.18 851 25.13 16.2 61.2 26 -3.4 25.8
16:55 1022 30.18 851 25.13 15.9 60.6 26 -3.5 25.7
17:00 1022 30.18 851 25.13 15.8 60.4 26 -3.4 25.9
17:05 1022 30.18 851 25.13 15.7 60.2 26 -3.7 25.3
17:10 1022 30.18 851 25.13 15.5 60 26 -3.6 25.4
17:15 1022 30.18 851 25.13 15.2 59.3 27 -3.5 25.6
17:20 1022 30.18 851 25.13 14.4 58 30 -2.6 27.3
17:25 1022 30.18 851 25.13 13.4 56.2 34 -2.2 28.1
17:30 1022 30.18 851 25.13 12.8 55 34 -2.7 27.1
17:35 1022 30.18 851 25.13 12.3 54.2 35 -2.6 27.3
17:40 1022 30.18 851 25.13 11.9 53.5 36 -2.5 27.5
17:45 1022 30.18 851 25.13 11.4 52.5 36 -3.1 26.4
17:50 1022 30.18 851 25.13 11.2 52.1 37 -3.1 26.5
17:55 1022 30.18 851 25.13 10.9 51.6 38 -2.8 26.9
18:00 1022 30.18 851 25.13 10.5 50.9 39 -2.8 27
18:05 1022 30.18 851 25.13 10.2 50.3 40 -2.8 26.9
18:10 1022 30.18 851 25.13 9.9 49.9 41 -2.6 27.3
18:15 1022 30.18 851 25.13 9.7 49.5 41 -2.9 26.8
18:20 1022 30.18 851 25.13 9.6 49.4 41 -2.8 26.9
18:25 1022 30.18 851 25.13 9.5 49.1 42 -2.8 27
18:30 1022 30.18 851 25.13 9.4 48.9 42 -2.8 27
18:35 1022 30.18 851 25.13 9.5 49.1 41 -2.9 26.7
18:40 1022 30.18 851 25.13 9.4 48.9 41 -3 26.5
18:45 1021 30.15 851 25.13 9.4 48.9 41 -3.1 26.4
18:50 1021 30.15 851 25.13 9.3 48.7 42 -3.1 26.5
18:55 1021 30.15 851 25.13 8.9 48.1 43 -3.1 26.5
19:00 1021 30.15 851 25.13 8.7 47.6 44 -2.8 26.9
19:05 1021 30.15 851 25.13 8.1 46.6 46 -2.7 27.2
19:10 1021 30.15 850 25.1 7.6 45.8 46 -3.2 26.3
19:15 1021 30.15 850 25.1 7.9 46.1 45 -3.3 26.1
19:20 1021 30.15 850 25.1 7.8 46 47 -2.9 26.7
19:25 1021 30.15 850 25.1 7.3 45.2 48 -2.8 27
19:30 1021 30.15 850 25.1 7 44.6 48 -3.3 26.1
19:35 1021 30.15 850 25.1 7.2 44.9 47 -3.5 25.7
19:40 1021 30.15 850 25.1 7.3 45.1 46 -3.6 25.5
19:45 1021 30.15 850 25.1 7.4 45.4 45 -3.8 25.2
19:50 1021 30.15 850 25.1 7.4 45.3 46 -3.6 25.6
19:55 1021 30.15 850 25.1 7.4 45.4 45 -3.8 25.2
20:00 1021 30.15 850 25.1 7.3 45.1 46 -3.4 25.8
20:05 1021 30.15 850 25.1 7 44.5 46 -3.9 25
20:10 1021 30.15 850 25.1 7.2 44.9 44 -4.1 24.6
20:15 1021 30.15 850 25.1 7.5 45.5 42 -4.6 23.8
20:20 1021 30.15 850 25.1 8.2 46.7 38 -5.4 22.3
20:25 1021 30.15 850 25.1 8.8 47.8 38 -4.7 23.5
20:30 1021 30.15 850 25.1 8.6 47.5 39 -4.4 24.1
20:35 1021 30.15 850 25.1 8 46.4 41 -4.5 23.9
20:40 1021 30.15 850 25.1 7.6 45.6 43 -4.3 24.2
20:45 1021 30.15 850 25.1 7.4 45.3 42 -4.8 23.4
20:50 1021 30.15 850 25.1 7.5 45.4 41 -4.8 23.4
20:55 1021 30.15 850 25.1 7.7 45.8 40 -5.1 22.9
21:00 1021 30.15 850 25.1 8 46.4 39 -5.1 22.9
21:05 1021 30.15 850 25.1 8.1 46.5 38 -5.3 22.4
21:10 1021 30.15 850 25.1 8.4 47.1 37 -5.4 22.3
21:15 1021 30.15 850 25.1 8.5 47.3 38 -5.1 22.8
21:20 1021 30.15 850 25.1 8.2 46.8 39 -4.9 23.1
21:25 1021 30.15 850 25.1 8.1 46.6 39 -5 23
21:30 1021 30.15 850 25.1 7.8 46.1 40 -4.9 23.1
21:35 1021 30.15 850 25.1 7.5 45.5 42 -4.5 24
21:40 1021 30.15 850 25.1 7.1 44.8 42 -4.9 23.1
21:45 1021 30.15 850 25.1 7.4 45.3 41 -5 23.1
21:50 1021 30.15 850 25.1 7.6 45.7 41 -4.9 23.2
21:55 1021 30.15 850 25.1 7.4 45.4 40 -5.1 22.8
22:00 1021 30.15 850 25.1 7.5 45.5 40 -5.3 22.5
22:05 1021 30.15 850 25.1 7.9 46.2 39 -5.3 22.5
22:10 1021 30.15 850 25.1 7.9 46.2 38 -5.6 22
22:15 1021 30.15 850 25.1 8.2 46.8 37 -5.7 21.7
22:20 1021 30.15 850 25.1 8.1 46.6 40 -4.7 23.5
22:25 1021 30.15 850 25.1 7.2 45 42 -4.7 23.5
22:30 1021 30.15 850 25.1 6.7 44 44 -4.9 23.3
22:35 1020 30.12 850 25.1 6.4 43.6 44 -4.9 23.2
22:40 1020 30.12 850 25.1 6.4 43.5 44 -5.1 22.9
22:45 1020 30.12 849 25.07 6.3 43.4 44 -4.9 23.1
22:50 1020 30.12 849 25.07 6 42.8 47 -4.5 23.9
22:55 1020 30.12 849 25.07 5.4 41.7 49 -4.6 23.8
23:00 1020 30.12 849 25.07 5.1 41.2 50 -4.5 23.9
23:05 1020 30.12 849 25.07 4.9 40.8 50 -4.7 23.6
23:10 1020 30.12 849 25.07 4.8 40.7 50 -4.6 23.7
23:15 1020 30.12 849 25.07 4.9 40.9 49 -5 23.1
23:20 1020 30.12 849 25.07 5.3 41.5 50 -4.4 24.1
23:25 1020 30.12 849 25.07 5.4 41.7 49 -4.6 23.7
23:30 1020 30.12 849 25.07 5.4 41.7 47 -5 23.1
23:35 1020 30.12 849 25.07 5.4 41.7 49 -4.5 23.9
23:40 1020 30.12 849 25.07 4.9 40.8 50 -4.6 23.8
23:45 1020 30.12 849 25.07 4.5 40.2 50 -4.9 23.2
23:50 1020 30.12 849 25.07 4.5 40.1 51 -4.8 23.3
23:55 1020 30.12 849 25.07 4.5 40.1 51 -4.7 23.5
24:00 1020 30.12 849 25.07 4.4 39.9 51 -4.8 23.3